Time;durP1;ratioP1;P1;durP2;ratioP2;P2;SDS_P1;SDS_P2;PMS_P1;PMS_P2;Temp;Humidity;BMP_temperature;BMP_pressure;BME280_temperature;BME280_humidity;BME280_pressure;Samples;Min_cycle;Max_cycle;Signal;HPM_P1;HPM_P2
2022/09/15 00:00:20;;;;;;;12.75;6.85;;;;;;;15.21;95.80;93526.59;1622614;88;21520;-57
2022/09/15 00:02:46;;;;;;;13.70;6.80;;;;;;;15.26;95.92;93531.39;1623754;88;21064;-59
2022/09/15 00:05:13;;;;;;;11.88;7.90;;;;;;;15.31;95.47;93521.57;1623288;87;21588;-58
2022/09/15 00:07:40;;;;;;;11.68;6.95;;;;;;;15.29;95.18;93505.47;1624588;87;21263;-58
2022/09/15 00:10:09;;;;;;;10.63;6.75;;;;;;;15.28;95.12;93505.31;1623756;87;21096;-58
2022/09/15 00:12:36;;;;;;;11.80;7.70;;;;;;;15.29;95.02;93507.47;1601944;87;21056;-58
2022/09/15 00:15:05;;;;;;;14.25;7.42;;;;;;;15.28;95.02;93506.70;1608124;87;21092;-59
2022/09/15 00:17:34;;;;;;;15.05;7.30;;;;;;;15.32;95.05;93505.84;1614024;88;21015;-58
2022/09/15 00:20:04;;;;;;;11.28;7.10;;;;;;;15.35;94.89;93500.66;1618349;88;21292;-59
2022/09/15 00:22:30;;;;;;;14.85;6.65;;;;;;;15.37;94.62;93499.52;1624970;87;21505;-58
2022/09/15 00:24:57;;;;;;;8.48;6.05;;;;;;;15.38;94.59;93509.98;1599324;88;21139;-59
2022/09/15 00:27:24;;;;;;;8.28;6.08;;;;;;;15.39;94.65;93495.61;1619725;87;20990;-58
2022/09/15 00:29:50;;;;;;;12.75;7.35;;;;;;;15.43;94.81;93501.66;1624234;87;21053;-60
2022/09/15 00:32:17;;;;;;;9.60;6.67;;;;;;;15.46;94.77;93506.19;1622466;87;21336;-58
2022/09/15 00:34:44;;;;;;;7.80;6.50;;;;;;;15.49;94.76;93507.17;1619351;88;20967;-58
2022/09/15 00:37:10;;;;;;;7.03;5.85;;;;;;;15.52;94.47;93499.98;1617338;87;21038;-59
2022/09/15 00:39:37;;;;;;;9.25;5.80;;;;;;;15.51;94.24;93487.39;1623583;88;21117;-59
2022/09/15 00:42:05;;;;;;;11.90;7.12;;;;;;;15.50;94.30;93502.52;1623289;88;20979;-59
2022/09/15 00:44:55;;;;;;;8.95;6.22;;;;;;;15.49;94.40;93503.02;1623557;88;21267;-59
2022/09/15 00:47:27;;;;;;;8.50;6.15;;;;;;;15.52;94.54;93502.76;1622451;87;21090;-58
2022/09/15 00:50:00;;;;;;;10.10;5.85;;;;;;;15.58;94.35;93486.85;1622826;87;20997;-59
2022/09/15 00:52:30;;;;;;;;;;;;;;;15.62;94.12;93516.48;1624504;87;21090;-58
2022/09/15 00:55:09;;;;;;;8.15;5.90;;;;;;;15.63;94.22;93509.67;1626668;88;20220;-58
2022/09/15 00:57:58;;;;;;;10.63;6.10;;;;;;;15.64;94.30;93491.00;1623270;87;21153;-60
2022/09/15 01:00:28;;;;;;;10.88;6.65;;;;;;;15.66;94.60;93487.08;1618819;88;21204;-59
2022/09/15 01:02:56;;;;;;;9.93;5.80;;;;;;;15.64;94.90;93502.09;1623309;88;20974;-59
2022/09/15 01:05:26;;;;;;;7.30;5.28;;;;;;;15.63;95.31;93497.81;1624252;87;21557;-59
2022/09/15 01:08:10;;;;;;;8.95;6.47;;;;;;;15.64;95.37;93511.80;1622037;88;21045;-58
2022/09/15 01:10:39;;;;;;;9.83;6.53;;;;;;;15.63;95.78;93501.97;1621952;87;21796;-58
2022/09/15 01:13:12;;;;;;;7.00;6.30;;;;;;;15.63;95.96;93501.34;1622784;88;21104;-59
2022/09/15 01:16:20;;;;;;;8.07;5.10;;;;;;;15.62;96.28;93504.00;1621433;86;21040;-58
2022/09/15 01:19:11;;;;;;;5.05;4.55;;;;;;;15.64;96.39;93509.79;1622585;88;21080;-57
2022/09/15 01:21:49;;;;;;;7.00;4.97;;;;;;;15.70;96.78;93498.04;1608839;88;21038;-57
2022/09/15 01:24:44;;;;;;;6.17;5.53;;;;;;;15.76;96.98;93482.13;1610821;88;21196;-59
2022/09/15 01:27:33;;;;;;;7.55;5.92;;;;;;;15.83;96.95;93485.00;1614614;88;21023;-58
2022/09/15 01:30:13;;;;;;;7.72;5.55;;;;;;;15.85;96.81;93463.82;1621461;87;21149;-57
2022/09/15 01:33:05;;;;;;;8.00;5.28;;;;;;;15.79;96.52;93485.28;1624394;88;21089;-58
2022/09/15 01:36:06;;;;;;;11.17;5.20;;;;;;;15.75;96.37;93472.30;1610826;87;21026;-58
2022/09/15 01:38:45;;;;;;;7.87;6.08;;;;;;;15.69;96.20;93459.75;1622576;87;21217;-60
2022/09/15 01:41:33;;;;;;;6.55;5.72;;;;;;;15.60;96.68;93473.27;1561168;90;21046;-59
2022/09/15 01:44:09;;;;;;;6.85;5.97;;;;;;;15.56;96.97;93454.73;1568958;90;21038;-58
2022/09/15 01:46:45;;;;;;;11.05;6.15;;;;;;;15.57;97.37;93448.56;1573397;89;21614;-59
2022/09/15 01:49:10;;;;;;;7.60;5.60;;;;;;;15.60;97.71;93449.70;1623478;87;21132;-59
2022/09/15 01:51:39;;;;;;;8.88;5.90;;;;;;;15.64;98.18;93444.63;1614799;87;21037;-59
2022/09/15 01:54:06;;;;;;;7.78;6.45;;;;;;;15.71;98.69;93442.70;1624913;87;21628;-58
2022/09/15 01:56:33;;;;;;;9.00;5.90;;;;;;;15.77;99.04;93446.20;1626192;88;21036;-58
2022/09/15 01:59:00;;;;;;;9.03;4.97;;;;;;;15.82;98.83;93444.66;1553410;88;21086;-61
2022/09/15 02:01:48;;;;;;;7.92;5.33;;;;;;;15.84;98.79;93429.03;1624585;87;21079;-59
2022/09/15 02:04:32;;;;;;;9.33;5.50;;;;;;;15.87;99.08;93446.03;1600641;88;21615;-58
2022/09/15 02:07:12;;;;;;;13.60;5.90;;;;;;;15.90;99.00;93435.94;1613780;88;21070;-58
2022/09/15 02:09:54;;;;;;;5.95;5.37;;;;;;;15.89;98.81;93442.11;1612703;87;21514;-57
2022/09/15 02:12:38;;;;;;;6.35;5.03;;;;;;;15.89;99.03;93441.38;1620905;87;21029;-58
2022/09/15 02:15:13;;;;;;;8.28;5.15;;;;;;;15.90;98.77;93439.45;1619695;87;20978;-58
2022/09/15 02:17:44;;;;;;;6.85;5.65;;;;;;;15.88;98.75;93428.12;1610608;88;21333;-58
2022/09/15 02:20:19;;;;;;;6.70;5.72;;;;;;;15.89;98.97;93429.63;1617554;87;21560;-57
2022/09/15 02:22:52;;;;;;;5.40;4.90;;;;;;;15.89;98.84;93425.47;1619417;87;21517;-58
2022/09/15 02:25:23;;;;;;;8.28;5.17;;;;;;;15.88;98.82;93439.86;1622268;87;21081;-60
2022/09/15 02:27:52;;;;;;;7.10;5.07;;;;;;;15.85;98.76;93444.41;1625440;87;21070;-58
2022/09/15 02:30:19;;;;;;;8.00;5.33;;;;;;;15.81;99.13;93434.22;1622438;88;21795;-59
2022/09/15 02:32:55;;;;;;;9.00;5.50;;;;;;;15.84;99.52;93429.03;1619842;87;21419;-59
2022/09/15 02:35:23;;;;;;;9.30;6.12;;;;;;;15.90;99.45;93442.23;1624330;88;20985;-58
2022/09/15 02:37:50;;;;;;;9.08;6.03;;;;;;;15.91;99.12;93439.58;1625028;87;21009;-58
2022/09/15 02:40:17;;;;;;;6.20;5.55;;;;;;;15.93;99.15;93437.69;1580992;88;21109;-59
2022/09/15 02:42:56;;;;;;;7.12;4.87;;;;;;;15.95;99.07;93428.95;1615365;87;22141;-60
2022/09/15 02:45:24;;;;;;;6.65;4.80;;;;;;;15.98;99.09;93423.02;1624570;87;21026;-59
2022/09/15 02:47:50;;;;;;;10.40;5.85;;;;;;;16.01;99.30;93414.44;1621008;88;21032;-58
2022/09/15 02:50:17;;;;;;;6.87;5.47;;;;;;;16.02;98.96;93413.17;1620593;87;21053;-59
2022/09/15 02:52:44;;;;;;;8.35;5.40;;;;;;;16.00;98.89;93408.77;1624264;87;21068;-58
2022/09/15 02:55:11;;;;;;;6.17;4.95;;;;;;;16.00;99.02;93414.32;1618595;87;22134;-59
2022/09/15 02:57:38;;;;;;;9.13;4.65;;;;;;;16.05;99.43;93419.08;1617720;87;20997;-58
2022/09/15 03:00:13;;;;;;;9.23;5.97;;;;;;;16.08;99.42;93420.81;1622299;87;21496;-58
2022/09/15 03:02:44;;;;;;;6.10;5.50;;;;;;;16.12;99.36;93410.19;1623267;88;21017;-57
2022/09/15 03:05:12;;;;;;;7.90;5.75;;;;;;;16.16;98.93;93402.36;1601887;88;21053;-58
2022/09/15 03:07:39;;;;;;;6.12;5.15;;;;;;;16.15;98.74;93413.34;1602756;88;21302;-59
2022/09/15 03:10:08;;;;;;;10.95;5.20;;;;;;;16.15;98.38;93405.64;1622087;87;21610;-59
2022/09/15 03:12:40;;;;;;;9.65;5.65;;;;;;;16.13;98.17;93405.41;1624535;87;21029;-60
2022/09/15 03:15:08;;;;;;;7.05;6.15;;;;;;;16.09;98.30;93409.84;1624696;88;21100;-59
2022/09/15 03:17:36;;;;;;;8.40;6.33;;;;;;;16.07;98.37;93408.21;1621618;87;21466;-59
2022/09/15 03:20:07;;;;;;;7.20;6.33;;;;;;;16.05;98.43;93407.97;1610014;88;21612;-60
2022/09/15 03:22:34;;;;;;;8.08;5.80;;;;;;;16.05;98.45;93397.50;1622820;87;21628;-59
2022/09/15 03:25:03;;;;;;;6.40;4.87;;;;;;;16.01;98.45;93400.56;1622127;87;21506;-58
2022/09/15 03:27:31;;;;;;;12.75;5.67;;;;;;;16.01;98.72;93406.73;1623630;87;21112;-60
2022/09/15 03:29:58;;;;;;;13.70;6.25;;;;;;;16.03;99.28;93397.27;1624808;87;21045;-59
2022/09/15 03:32:25;;;;;;;7.33;6.17;;;;;;;16.08;99.35;93393.06;1626257;88;21214;-59
2022/09/15 03:34:51;;;;;;;6.67;5.42;;;;;;;16.14;99.31;93399.35;1624170;87;20982;-58
2022/09/15 03:37:18;;;;;;;7.97;4.87;;;;;;;16.17;99.16;93391.38;1622900;87;21021;-58
2022/09/15 03:39:46;;;;;;;6.28;5.78;;;;;;;16.18;99.13;93374.85;1623206;87;20982;-58
2022/09/15 03:42:13;;;;;;;6.65;5.42;;;;;;;16.23;99.44;93375.44;1603040;87;21498;-59
2022/09/15 03:44:40;;;;;;;9.28;6.10;;;;;;;16.23;99.14;93367.73;1612528;87;21267;-59
2022/09/15 03:47:06;;;;;;;16.80;8.68;;;;;;;16.18;98.85;93366.53;1621776;87;21565;-60
2022/09/15 03:49:33;;;;;;;14.43;10.20;;;;;;;16.09;99.10;93362.67;1625029;87;21080;-58
2022/09/15 03:52:01;;;;;;;13.80;11.38;;;;;;;16.01;99.44;93356.80;1624260;87;21560;-58
2022/09/15 03:54:29;;;;;;;15.55;10.90;;;;;;;15.96;100.00;93362.53;1595667;88;21141;-58
2022/09/15 03:56:56;;;;;;;22.10;14.53;;;;;;;16.01;100.00;93370.05;1623065;88;21831;-60
2022/09/15 03:59:23;;;;;;;15.00;10.53;;;;;;;16.03;100.00;93357.03;1618316;87;20982;-59
2022/09/15 04:01:50;;;;;;;20.40;11.15;;;;;;;16.04;100.00;93350.22;1621449;88;21046;-60
2022/09/15 04:04:17;;;;;;;17.52;11.63;;;;;;;16.06;100.00;93362.31;1599632;87;22377;-60
2022/09/15 04:06:44;;;;;;;10.88;8.58;;;;;;;16.11;100.00;93358.74;1616703;87;21442;-59
2022/09/15 04:09:11;;;;;;;8.78;7.70;;;;;;;16.14;100.00;93354.96;1620075;87;21270;-60
2022/09/15 04:11:38;;;;;;;7.72;6.92;;;;;;;16.12;100.00;93347.76;1625084;87;21169;-60
2022/09/15 04:14:05;;;;;;;13.43;7.55;;;;;;;16.10;100.00;93353.73;1619596;87;21014;-59
2022/09/15 04:16:33;;;;;;;12.98;6.78;;;;;;;16.04;100.00;93348.83;1623388;87;21202;-57
2022/09/15 04:18:59;;;;;;;6.92;5.58;;;;;;;16.04;100.00;93344.05;1618905;87;21086;-58
2022/09/15 04:21:27;;;;;;;10.10;6.65;;;;;;;16.07;100.00;93338.12;1619027;87;21574;-58
2022/09/15 04:23:54;;;;;;;9.70;7.10;;;;;;;16.07;100.00;93335.34;1600119;88;20991;-59
2022/09/15 04:26:30;;;;;;;12.85;9.13;;;;;;;16.06;100.00;93347.06;1599287;88;21502;-59
2022/09/15 04:28:59;;;;;;;12.70;9.23;;;;;;;16.03;100.00;93334.23;1611181;87;21500;-59
2022/09/15 04:31:26;;;;;;;13.15;8.88;;;;;;;16.04;100.00;93339.89;1624826;87;21089;-58
2022/09/15 04:33:53;;;;;;;31.55;19.48;;;;;;;16.04;100.00;93337.73;1620742;88;21424;-58
2022/09/15 04:36:23;;;;;;;12.93;8.83;;;;;;;16.05;100.00;93337.86;1623035;88;21068;-59
2022/09/15 04:38:50;;;;;;;11.20;9.15;;;;;;;16.08;100.00;93334.81;1623229;88;21566;-60
2022/09/15 04:41:17;;;;;;;12.55;10.35;;;;;;;16.11;100.00;93333.03;1622240;87;21070;-57
2022/09/15 04:43:44;;;;;;;10.78;8.30;;;;;;;16.17;100.00;93335.12;1615288;88;20997;-59
2022/09/15 04:46:12;;;;;;;13.08;8.58;;;;;;;16.17;100.00;93337.89;1617145;87;21217;-58
2022/09/15 04:48:40;;;;;;;8.33;7.10;;;;;;;16.22;100.00;93333.69;1619175;87;20949;-55
2022/09/15 04:51:10;;;;;;;10.55;8.38;;;;;;;16.28;100.00;93337.81;1619388;87;21042;-53
2022/09/15 04:53:36;;;;;;;15.40;9.50;;;;;;;16.27;100.00;93343.98;1617542;87;21014;-54
2022/09/15 04:56:06;;;;;;;12.60;10.65;;;;;;;16.23;100.00;93347.69;1624530;87;21022;-58
2022/09/15 04:58:43;;;;;;;16.23;9.93;;;;;;;16.21;100.00;93352.23;1624608;87;21241;-59
2022/09/15 05:01:15;;;;;;;16.42;11.33;;;;;;;16.18;100.00;93336.00;1622063;88;21053;-58
2022/09/15 05:03:42;;;;;;;18.23;11.85;;;;;;;16.18;100.00;93331.08;1596121;87;23953;-58
2022/09/15 05:06:11;;;;;;;16.70;11.38;;;;;;;16.18;100.00;93338.02;1620298;87;21006;-58
2022/09/15 05:08:38;;;;;;;17.30;12.50;;;;;;;16.15;100.00;93330.11;1613441;88;22214;-58
2022/09/15 05:11:09;;;;;;;24.15;15.95;;;;;;;16.13;100.00;93326.33;1623660;87;21297;-59
2022/09/15 05:13:38;;;;;;;18.57;11.93;;;;;;;16.09;100.00;93339.73;1610236;88;20987;-60
2022/09/15 05:16:11;;;;;;;19.30;13.22;;;;;;;16.07;100.00;93337.47;1618231;87;21084;-60
2022/09/15 05:18:40;;;;;;;17.48;11.65;;;;;;;16.08;100.00;93339.63;1624130;87;21048;-59
2022/09/15 05:21:09;;;;;;;17.15;11.10;;;;;;;16.12;100.00;93332.50;1624109;88;21601;-58
2022/09/15 05:23:36;;;;;;;17.80;11.83;;;;;;;16.18;100.00;93324.14;1620355;87;21917;-60
2022/09/15 05:26:06;;;;;;;16.02;12.47;;;;;;;16.24;100.00;93334.58;1631629;86;21562;-59
2022/09/15 05:28:34;;;;;;;20.50;16.27;;;;;;;16.26;100.00;93329.26;1661493;85;21018;-60
2022/09/15 05:31:01;;;;;;;22.73;16.15;;;;;;;16.25;100.00;93318.78;1652663;85;21446;-58
2022/09/15 05:33:28;;;;;;;25.68;16.25;;;;;;;16.27;100.00;93325.95;1639343;85;21053;-61
2022/09/15 05:35:59;;;;;;;20.17;15.60;;;;;;;16.31;100.00;93318.09;1660038;85;21162;-61
2022/09/15 05:38:29;;;;;;;18.02;13.75;;;;;;;16.32;100.00;93323.75;1631933;84;21164;-60
2022/09/15 05:41:06;;;;;;;15.75;11.35;;;;;;;16.35;100.00;93333.88;1650166;85;21410;-61
2022/09/15 05:43:34;;;;;;;15.65;12.07;;;;;;;16.36;100.00;93328.44;1645657;85;22327;-60
2022/09/15 05:46:01;;;;;;;17.80;14.18;;;;;;;16.36;100.00;93328.44;1642632;85;21188;-61
2022/09/15 05:48:28;;;;;;;18.15;14.47;;;;;;;16.37;100.00;93328.55;1658945;85;21303;-61
2022/09/15 05:50:55;;;;;;;15.90;13.95;;;;;;;16.39;100.00;93325.36;1595518;87;21106;-58
2022/09/15 05:53:22;;;;;;;22.77;12.45;;;;;;;16.47;100.00;93333.88;1643772;85;21006;-59
2022/09/15 05:55:50;;;;;;;14.80;11.57;;;;;;;16.53;100.00;93347.09;1644366;84;21485;-62
2022/09/15 05:58:17;;;;;;;20.85;11.73;;;;;;;16.57;100.00;93339.22;1631733;85;21081;-59
2022/09/15 06:00:44;;;;;;;14.38;12.25;;;;;;;16.58;100.00;93324.80;1627584;85;21281;-59
2022/09/15 06:03:13;;;;;;;19.87;13.03;;;;;;;16.58;100.00;93327.58;1589235;87;21104;-60
2022/09/15 06:05:41;;;;;;;17.80;13.38;;;;;;;16.62;100.00;93335.01;1650260;85;21059;-60
2022/09/15 06:08:08;;;;;;;21.20;14.78;;;;;;;16.67;100.00;93340.37;1636646;85;21306;-59
2022/09/15 06:10:35;;;;;;;23.62;16.23;;;;;;;16.64;100.00;93350.51;1626608;86;21108;-59
2022/09/15 06:13:01;;;;;;;19.77;15.32;;;;;;;16.60;100.00;93352.06;1650314;85;21901;-59
2022/09/15 06:15:28;;;;;;;21.52;15.25;;;;;;;16.56;100.00;93350.95;1646677;85;20958;-62
2022/09/15 06:17:55;;;;;;;31.05;24.07;;;;;;;16.49;100.00;93343.20;1649319;85;21564;-57
2022/09/15 06:20:22;;;;;;;28.47;22.22;;;;;;;16.50;100.00;93352.27;1658936;85;21139;-60
2022/09/15 06:22:49;;;;;;;30.35;20.00;;;;;;;16.52;100.00;93349.09;1633536;85;21086;-59
2022/09/15 06:25:16;;;;;;;19.48;16.55;;;;;;;16.57;100.00;93348.94;1640480;84;21246;-63
2022/09/15 06:27:43;;;;;;;20.95;14.20;;;;;;;16.63;100.00;93349.63;1638494;85;21205;-59
2022/09/15 06:30:11;;;;;;;15.88;12.25;;;;;;;16.67;100.00;93343.14;1637907;86;21063;-60
2022/09/15 06:32:38;;;;;;;16.17;12.28;;;;;;;16.70;100.00;93335.19;1651940;85;21035;-60
2022/09/15 06:35:06;;;;;;;13.85;10.48;;;;;;;16.78;100.00;93329.92;1652100;85;21215;-60
2022/09/15 06:37:33;;;;;;;15.68;11.45;;;;;;;16.89;100.00;93334.61;1634172;85;22127;-57
2022/09/15 06:40:01;;;;;;;13.58;11.40;;;;;;;16.99;100.00;93328.17;1641081;84;22023;-58
2022/09/15 06:42:28;;;;;;;15.08;13.43;;;;;;;17.06;100.00;93326.84;1637921;85;21121;-58
2022/09/15 06:44:55;;;;;;;16.60;10.30;;;;;;;17.12;100.00;93332.42;1648233;85;21091;-60
2022/09/15 06:47:22;;;;;;;11.55;8.63;;;;;;;17.19;100.00;93333.88;1631945;85;21126;-62
2022/09/15 06:49:49;;;;;;;12.60;8.53;;;;;;;17.24;100.00;93333.81;1636132;85;21149;-60
2022/09/15 06:52:16;;;;;;;11.97;9.40;;;;;;;17.30;100.00;93342.09;1637917;85;20955;-62
2022/09/15 06:54:42;;;;;;;16.20;11.78;;;;;;;17.32;100.00;93340.92;1606586;86;21527;-60
2022/09/15 06:57:09;;;;;;;13.83;11.08;;;;;;;17.32;100.00;93340.92;1652780;84;21052;-59
2022/09/15 06:59:36;;;;;;;15.85;11.70;;;;;;;17.31;100.00;93340.16;1597696;87;21060;-60
2022/09/15 07:02:03;;;;;;;13.00;11.57;;;;;;;17.33;100.00;93351.53;1599444;87;21210;-59
2022/09/15 07:04:30;;;;;;;15.40;12.47;;;;;;;17.36;100.00;93353.29;1599642;88;21044;-63
2022/09/15 07:06:58;;;;;;;14.45;12.88;;;;;;;17.50;100.00;93359.68;1592051;87;21159;-66
2022/09/15 07:09:25;;;;;;;14.45;12.50;;;;;;;17.68;100.00;93356.90;1614279;86;21169;-59
2022/09/15 07:11:53;;;;;;;15.93;13.90;;;;;;;17.82;100.00;93357.75;1589018;88;21057;-60
2022/09/15 07:14:20;;;;;;;18.23;11.68;;;;;;;17.94;100.00;93359.08;1602620;88;21243;-58
2022/09/15 07:16:47;;;;;;;27.37;18.75;;;;;;;18.13;100.00;93357.02;1622694;88;21049;-61
2022/09/15 07:19:13;;;;;;;13.25;11.88;;;;;;;18.27;100.00;93355.94;1646062;85;21101;-60
2022/09/15 07:21:40;;;;;;;11.75;10.55;;;;;;;18.38;100.00;93345.27;1601133;86;21109;-57
2022/09/15 07:24:09;;;;;;;14.35;11.88;;;;;;;18.47;100.00;93348.41;1595149;88;21130;-61
2022/09/15 07:26:37;;;;;;;15.18;9.40;;;;;;;18.60;100.00;93342.88;1636727;85;21132;-59
2022/09/15 07:29:05;;;;;;;9.53;8.58;;;;;;;18.75;98.89;93357.05;1641385;86;21010;-60
2022/09/15 07:31:34;;;;;;;10.60;8.88;;;;;;;18.87;97.80;93360.39;1651116;85;21001;-58
2022/09/15 07:34:02;;;;;;;11.83;9.93;;;;;;;18.95;97.08;93361.25;1649587;85;21105;-63
2022/09/15 07:36:29;;;;;;;10.25;8.58;;;;;;;19.02;96.31;93359.97;1609363;87;21243;-64
2022/09/15 07:38:56;;;;;;;10.45;7.60;;;;;;;19.10;96.33;93355.28;1606001;86;21265;-60
2022/09/15 07:41:26;;;;;;;7.03;6.42;;;;;;;19.21;95.90;93367.63;1624314;86;21074;-63
2022/09/15 07:43:55;;;;;;;10.15;9.05;;;;;;;19.31;94.68;93368.72;1624177;86;21066;-62
2022/09/15 07:46:23;;;;;;;10.93;9.48;;;;;;;19.38;94.29;93384.80;1619763;86;21102;-59
2022/09/15 07:48:52;;;;;;;17.50;13.25;;;;;;;19.37;93.21;93388.88;1605692;86;21109;-58
2022/09/15 07:51:19;;;;;;;25.17;18.98;;;;;;;19.30;92.22;93403.47;1605218;87;21966;-57
2022/09/15 07:53:46;;;;;;;18.57;13.95;;;;;;;19.21;91.46;93416.42;1626579;86;20869;-59
2022/09/15 07:56:13;;;;;;;11.35;8.83;;;;;;;19.18;91.78;93416.77;1631150;87;21048;-58
2022/09/15 07:58:40;;;;;;;9.70;8.80;;;;;;;19.19;92.52;93423.18;1607031;86;21105;-58
2022/09/15 08:01:13;;;;;;;13.15;8.78;;;;;;;19.24;93.20;93418.17;1615254;86;21176;-59
2022/09/15 08:03:42;;;;;;;14.60;12.95;;;;;;;19.30;93.97;93409.05;1597248;87;21299;-59
2022/09/15 08:06:09;;;;;;;10.55;9.53;;;;;;;19.32;94.02;93402.29;1627293;87;21172;-60
2022/09/15 08:08:37;;;;;;;8.38;7.25;;;;;;;19.29;93.65;93401.20;1595155;88;21532;-67
2022/09/15 08:11:09;;;;;;;10.50;8.10;;;;;;;19.25;93.08;93393.17;1590124;87;21076;-63
2022/09/15 08:13:36;;;;;;;8.85;7.37;;;;;;;19.30;93.70;93382.55;1586695;88;21030;-61
2022/09/15 08:16:08;;;;;;;8.48;7.33;;;;;;;19.36;94.05;93387.38;1591269;88;21476;-59
2022/09/15 08:18:35;;;;;;;21.97;17.15;;;;;;;19.46;93.97;93385.67;1587847;87;21535;-60
2022/09/15 08:21:06;;;;;;;24.15;18.50;;;;;;;19.50;94.20;93388.88;1585459;88;21041;-56
2022/09/15 08:23:33;;;;;;;15.10;10.43;;;;;;;19.54;94.69;93394.88;1582378;87;21184;-59
2022/09/15 08:26:00;;;;;;;10.80;7.10;;;;;;;19.59;92.48;93396.06;1592026;87;22224;-59
2022/09/15 08:28:29;;;;;;;12.93;7.53;;;;;;;19.64;91.50;93404.33;1599056;87;21178;-61
2022/09/15 08:31:05;;;;;;;4.42;4.00;;;;;;;19.67;91.87;93408.83;1631553;85;21037;-60
2022/09/15 08:33:32;;;;;;;4.47;2.60;;;;;;;19.72;91.97;93415.59;1649084;85;21510;-61
2022/09/15 08:36:03;;;;;;;2.40;2.20;;;;;;;19.69;89.08;93423.00;1648761;85;22300;-61
2022/09/15 08:38:29;;;;;;;5.00;2.98;;;;;;;19.68;87.36;93423.52;1619809;86;21533;-58
2022/09/15 08:41:03;;;;;;;5.22;2.27;;;;;;;19.66;86.10;93428.27;1642762;85;21969;-58
2022/09/15 08:43:53;;;;;;;2.70;2.50;;;;;;;19.64;85.22;93425.27;1631831;85;20969;-59
2022/09/15 08:46:25;;;;;;;3.00;2.58;;;;;;;19.65;84.43;93419.78;1639771;85;21096;-60
2022/09/15 08:49:16;;;;;;;3.55;2.50;;;;;;;19.69;83.52;93420.84;1648334;85;21576;-62
2022/09/15 08:51:47;;;;;;;7.92;2.60;;;;;;;19.78;83.29;93423.94;1627955;85;21104;-59
2022/09/15 08:54:19;;;;;;;9.10;3.00;;;;;;;19.88;83.20;93422.23;1649536;86;21073;-60
2022/09/15 08:56:46;;;;;;;6.33;3.72;;;;;;;19.99;83.34;93422.64;1599172;87;21068;-58
2022/09/15 08:59:17;;;;;;;4.83;3.72;;;;;;;20.09;84.38;93437.04;1639260;85;21038;-59
2022/09/15 09:02:31;;;;;;;5.30;2.80;;;;;;;20.17;84.67;93433.05;1645510;85;21294;-60
2022/09/15 09:05:28;;;;;;;2.67;2.35;;;;;;;20.24;84.75;93442.18;1636492;85;21118;-61
2022/09/15 09:08:16;;;;;;;6.53;3.02;;;;;;;20.26;84.25;93444.41;1639854;86;23310;-62
2022/09/15 09:10:53;;;;;;;5.65;2.25;;;;;;;20.25;83.37;93441.52;1626689;87;20998;-59
2022/09/15 09:13:47;;;;;;;4.62;2.80;;;;;;;20.24;85.07;93433.04;1616677;86;21085;-60
2022/09/15 09:16:42;;;;;;;4.33;3.25;;;;;;;20.25;85.30;93442.28;1622334;85;21194;-61
2022/09/15 09:19:32;;;;;;;3.60;2.50;;;;;;;20.26;83.99;93439.59;1567829;88;21078;-61
2022/09/15 09:22:03;;;;;;;5.97;3.02;;;;;;;20.22;83.74;93444.00;1578066;88;21277;-61
2022/09/15 09:24:45;;;;;;;4.37;3.40;;;;;;;20.22;82.91;93444.00;1587154;88;21046;-61
2022/09/15 09:27:17;;;;;;;12.50;7.72;;;;;;;20.18;80.71;93434.55;1605246;87;21062;-59
2022/09/15 09:29:48;;;;;;;9.23;6.07;;;;;;;20.17;80.65;93440.69;1593735;87;21109;-61
2022/09/15 09:32:23;;;;;;;6.37;4.05;;;;;;;20.18;80.33;93438.73;1650268;86;21108;-61
2022/09/15 09:35:01;;;;;;;13.35;6.78;;;;;;;20.17;79.36;93430.92;1656871;85;21193;-61
2022/09/15 09:37:27;;;;;;;19.25;8.63;;;;;;;20.18;79.79;93431.02;1594091;87;21046;-60
2022/09/15 09:39:54;;;;;;;11.88;5.83;;;;;;;20.18;80.20;93425.44;1582389;88;21133;-60
2022/09/15 09:42:25;;;;;;;4.28;2.98;;;;;;;20.25;80.23;93423.36;1609809;87;21042;-61
2022/09/15 09:44:53;;;;;;;4.83;2.87;;;;;;;20.33;79.71;93406.80;1613492;87;21090;-61
2022/09/15 09:47:28;;;;;;;4.90;2.65;;;;;;;20.44;78.66;93419.76;1612050;86;21274;-58
2022/09/15 09:49:56;;;;;;;4.20;3.37;;;;;;;20.60;76.76;93413.04;1575264;89;21128;-61
2022/09/15 09:52:37;;;;;;;35.90;28.57;;;;;;;20.68;75.87;93420.84;1599200;87;21623;-62
2022/09/15 09:55:20;;;;;;;7.95;6.80;;;;;;;20.83;76.51;93426.58;1643271;84;21128;-58
2022/09/15 09:57:47;;;;;;;3.60;2.87;;;;;;;20.95;75.34;93431.39;1629562;86;21254;-60
2022/09/15 10:00:34;;;;;;;4.58;3.85;;;;;;;21.09;74.28;93412.51;1629676;85;21196;-64
2022/09/15 10:03:20;;;;;;;7.28;3.00;;;;;;;21.14;74.11;93416.54;1642771;85;21092;-64
2022/09/15 10:06:19;;;;;;;4.65;2.85;;;;;;;21.28;73.57;93421.42;1648143;85;21041;-57
2022/09/15 10:08:58;;;;;;;3.47;3.17;;;;;;;21.34;72.37;93426.22;1644619;86;21052;-59
2022/09/15 10:11:44;;;;;;;7.05;3.75;;;;;;;21.37;71.63;93417.48;1607551;86;21579;-60
2022/09/15 10:14:32;;;;;;;5.97;3.58;;;;;;;21.38;70.70;93407.03;1621708;85;21186;-63
2022/09/15 10:17:15;;;;;;;5.12;1.52;;;;;;;21.38;70.60;93409.19;1626124;86;21737;-59
2022/09/15 10:19:55;;;;;;;2.65;1.72;;;;;;;21.42;69.75;93407.42;1596722;87;21065;-63
2022/09/15 10:22:29;;;;;;;1.92;1.50;;;;;;;21.40;69.79;93403.03;1650437;86;21390;-60
2022/09/15 10:24:57;;;;;;;2.33;2.08;;;;;;;21.34;69.58;93412.23;1636064;85;21084;-62
2022/09/15 10:27:35;;;;;;;2.92;1.87;;;;;;;21.36;69.10;93401.23;1630330;85;21234;-60
2022/09/15 10:30:16;;;;;;;4.47;2.40;;;;;;;21.38;69.57;93407.03;1648335;84;21506;-62
2022/09/15 10:32:45;;;;;;;2.98;2.35;;;;;;;21.48;68.91;93412.23;1659619;84;21053;-59
2022/09/15 10:35:19;;;;;;;4.55;2.52;;;;;;;21.67;68.27;93412.10;1639995;85;21134;-62
2022/09/15 10:37:55;;;;;;;5.55;2.35;;;;;;;21.84;67.34;93425.66;1654646;84;21097;-62
2022/09/15 10:40:49;;;;;;;3.62;2.42;;;;;;;21.86;67.21;93413.25;1667109;84;21293;-60
2022/09/15 10:43:27;;;;;;;4.95;2.25;;;;;;;21.84;66.82;93418.66;1653358;86;21092;-63
2022/09/15 10:46:27;;;;;;;4.10;2.25;;;;;;;21.78;67.22;93408.23;1586127;88;21089;-59
2022/09/15 10:49:20;;;;;;;6.45;3.42;;;;;;;21.70;66.87;93422.86;1597077;87;21582;-62
2022/09/15 10:52:27;;;;;;;4.08;3.27;;;;;;;21.54;66.92;93417.03;1642338;85;21053;-66
2022/09/15 10:55:24;;;;;;;3.10;2.50;;;;;;;21.41;67.81;93417.88;1646197;85;21256;-61
2022/09/15 10:58:32;;;;;;;6.50;2.67;;;;;;;21.35;68.15;93410.30;1645494;85;21379;-62
2022/09/15 11:01:30;;;;;;;3.75;1.80;;;;;;;21.36;68.83;93423.62;1624268;86;21175;-62
2022/09/15 11:04:18;;;;;;;4.75;2.17;;;;;;;21.32;69.53;93412.03;1631440;86;21139;-62
2022/09/15 11:07:12;;;;;;;5.37;4.28;;;;;;;21.32;69.90;93409.23;1588926;88;21169;-62
2022/09/15 11:10:02;;;;;;;10.50;5.58;;;;;;;21.30;70.74;93413.23;1585341;88;21120;-61
2022/09/15 11:12:49;;;;;;;16.93;12.50;;;;;;;21.30;71.09;93410.44;1624641;85;21113;-64
2022/09/15 11:15:28;;;;;;;5.72;4.67;;;;;;;21.40;71.00;93395.39;1638521;86;21214;-63
2022/09/15 11:18:06;;;;;;;5.80;2.95;;;;;;;21.52;69.84;93401.44;1635589;85;21039;-61
2022/09/15 11:20:57;;;;;;;7.62;3.37;;;;;;;21.59;69.09;93389.53;1639790;85;21030;-58
2022/09/15 11:23:35;;;;;;;9.25;3.90;;;;;;;21.63;68.70;93388.58;1651207;85;21208;-62
2022/09/15 11:26:15;;;;;;;10.25;4.83;;;;;;;21.59;67.92;93393.73;1640132;85;21057;-60
2022/09/15 11:28:53;;;;;;;10.38;4.37;;;;;;;21.53;68.08;93393.91;1588510;88;22448;-61
2022/09/15 11:31:34;;;;;;;8.08;4.42;;;;;;;21.52;68.28;93385.41;1617017;85;21025;-60
2022/09/15 11:34:24;;;;;;;4.17;2.60;;;;;;;21.52;67.33;93398.64;1631364;85;21123;-61
2022/09/15 11:37:08;;;;;;;7.12;3.17;;;;;;;21.45;66.16;93397.95;1611795;85;21281;-62
2022/09/15 11:39:55;;;;;;;7.80;2.85;;;;;;;21.39;65.71;93403.69;1590145;88;21475;-63
2022/09/15 11:42:37;;;;;;;6.50;3.72;;;;;;;21.37;65.84;93402.73;1644938;85;20981;-61
2022/09/15 11:45:07;;;;;;;4.47;3.02;;;;;;;21.40;65.69;93396.03;1593560;87;21046;-61
2022/09/15 11:47:46;;;;;;;9.28;4.53;;;;;;;21.42;65.38;93382.23;1580971;88;21058;-60
2022/09/15 11:50:33;;;;;;;8.60;4.97;;;;;;;21.43;65.66;93388.70;1591176;87;21321;-61